Westland, Michigan
Current Conditions -  °F | °C
As of 1:53 PM on Thursday 27 Nov 2014 (Local Time) from KDTW Reporting Station
Broken Clouds Broken Clouds  
Wind Chill: 25°   Ceiling: 4000
Heat Index: 34°   Visibility: 10mi
Dew Point: 22°   Wind: 14mph
Humidity: 61%   Direction: 280°W
Pressure: 30.16"   Gusts: 20mph
Location:  42.32°N, 83.4°W
Report Text: KDTW 271853Z 28012G17KT 10SM BKN040 BKN100 01/M06 A3016 RMK AO2 SLP218 T00111056
Loading
Personal Weather Stations






























Interactive Weather Map New forecast layout! Learn more

10-Day Weather Forecast

Advertisements
Track Severe Weather on mobile